Time;durP1;ratioP1;P1;durP2;ratioP2;P2;SDS_P1;SDS_P2;PMS_P1;PMS_P2;Temp;Humidity;BMP_temperature;BMP_pressure;BME280_temperature;BME280_humidity;BME280_pressure;Samples;Min_cycle;Max_cycle;Signal;HPM_P1;HPM_P2
2023/01/01 00:00:37;;;;;;;87.53;42.58;;;;;;;1.20;78.88;94809.34;5020108;28;20029;-42
2023/01/01 00:03:02;;;;;;;85.05;43.80;;;;;;;1.23;78.96;94803.03;5023238;28;20516;-43
2023/01/01 00:05:28;;;;;;;108.65;48.65;;;;;;;1.16;78.02;94802.56;5015417;28;20022;-44
2023/01/01 00:07:53;;;;;;;102.03;46.28;;;;;;;1.30;78.07;94802.69;5019809;28;20448;-43
2023/01/01 00:10:27;;;;;;;184.45;53.92;;;;;;;1.45;78.57;94803.56;5017687;28;20025;-42
2023/01/01 00:12:53;;;;;;;221.57;64.28;;;;;;;1.50;78.51;94802.19;5023222;28;20034;-42
2023/01/01 00:15:19;;;;;;;147.68;52.38;;;;;;;1.59;78.15;94804.91;5024769;28;20575;-43
2023/01/01 00:17:44;;;;;;;208.85;55.20;;;;;;;1.63;77.69;94802.75;5023704;28;20565;-42
2023/01/01 00:20:10;;;;;;;229.20;58.95;;;;;;;1.55;77.52;94804.31;5026885;28;20029;-43
2023/01/01 00:22:36;;;;;;;159.68;59.15;;;;;;;1.33;78.82;94799.06;5019857;28;20061;-42
2023/01/01 00:25:02;;;;;;;255.05;64.03;;;;;;;1.52;79.14;94810.66;5022258;28;20057;-44
2023/01/01 00:27:27;;;;;;;186.75;61.78;;;;;;;1.61;79.31;94812.59;5020632;28;20071;-43
2023/01/01 00:29:52;;;;;;;209.57;56.63;;;;;;;1.17;80.10;94821.13;5017341;28;20033;-43
2023/01/01 00:32:18;;;;;;;163.50;53.33;;;;;;;1.34;80.61;94822.31;5023485;28;20036;-41
2023/01/01 00:34:43;;;;;;;153.00;54.67;;;;;;;1.21;79.95;94826.44;5019687;28;20021;-43
2023/01/01 00:37:10;;;;;;;150.93;54.58;;;;;;;1.29;78.80;94822.97;5019206;28;20017;-42
2023/01/01 00:39:36;;;;;;;119.22;46.25;;;;;;;1.18;78.28;94821.91;5021334;28;20059;-43
2023/01/01 00:42:01;;;;;;;125.80;45.80;;;;;;;1.00;78.70;94824.63;5020559;28;20022;-44
2023/01/01 00:44:27;;;;;;;114.45;46.92;;;;;;;0.97;78.30;94825.53;5018560;28;20048;-42
2023/01/01 00:46:52;;;;;;;124.03;49.38;;;;;;;0.76;78.23;94822.50;5024805;28;20496;-42
2023/01/01 00:49:18;;;;;;;132.68;50.17;;;;;;;0.62;78.70;94825.81;5024397;28;20233;-44
2023/01/01 00:51:43;;;;;;;143.35;49.25;;;;;;;0.54;79.07;94821.13;5027256;28;20045;-44
2023/01/01 00:54:08;;;;;;;131.07;45.88;;;;;;;0.45;79.49;94819.16;5020863;28;20024;-46
2023/01/01 00:56:34;;;;;;;121.25;43.53;;;;;;;0.40;79.44;94821.69;5017888;28;20095;-45
2023/01/01 00:59:00;;;;;;;99.88;45.80;;;;;;;0.35;78.98;94814.88;5022605;28;20402;-43
2023/01/01 01:01:25;;;;;;;102.90;45.47;;;;;;;0.28;79.00;94792.72;5025944;28;20056;-45
2023/01/01 01:03:51;;;;;;;104.13;49.15;;;;;;;0.52;78.21;94797.09;5018396;28;20022;-44
2023/01/01 01:06:17;;;;;;;119.55;54.13;;;;;;;0.63;77.46;94812.97;5019695;28;20552;-45
2023/01/01 01:08:45;;;;;;;107.22;47.63;;;;;;;0.55;77.09;94811.75;5018745;28;20040;-43
2023/01/01 01:11:14;;;;;;;87.68;43.28;;;;;;;0.40;77.85;94800.72;5013485;28;20021;-44
2023/01/01 01:13:40;;;;;;;;;;;;;;;0.65;77.71;94807.88;5027041;28;20033;-44
2023/01/01 01:16:26;;;;;;;86.80;37.45;;;;;;;0.28;78.93;94804.31;5021272;28;19917;-46
2023/01/01 01:18:53;;;;;;;82.25;34.65;;;;;;;0.45;79.05;94802.09;5025031;28;20035;-47
2023/01/01 01:21:20;;;;;;;79.28;34.10;;;;;;;0.56;78.58;94805.13;5023489;28;20040;-43
2023/01/01 01:23:47;;;;;;;75.15;31.95;;;;;;;0.63;78.96;94804.81;5027486;28;20044;-45
2023/01/01 01:26:15;;;;;;;95.28;40.42;;;;;;;0.48;79.48;94810.09;5019702;28;20494;-45
2023/01/01 01:28:41;;;;;;;81.90;37.22;;;;;;;0.48;78.56;94807.38;5022343;28;20021;-46
2023/01/01 01:31:07;;;;;;;80.85;36.63;;;;;;;0.23;77.37;94796.00;5021486;28;20098;-43
2023/01/01 01:33:32;;;;;;;94.15;39.97;;;;;;;0.14;77.50;94801.41;5022341;28;20493;-43
2023/01/01 01:35:58;;;;;;;85.95;40.58;;;;;;;0.00;77.80;94806.19;5022867;28;20084;-44
2023/01/01 01:38:24;;;;;;;89.28;40.00;;;;;;;0.07;77.71;94810.59;5023376;28;20021;-46
2023/01/01 01:40:49;;;;;;;77.60;36.38;;;;;;;0.05;77.26;94817.66;5021395;28;20033;-44
2023/01/01 01:43:22;;;;;;;82.35;40.13;;;;;;;-0.07;77.97;94813.88;5020898;28;20471;-47
2023/01/01 01:45:48;;;;;;;94.20;42.42;;;;;;;-0.16;78.23;94809.16;5019719;28;20037;-43
2023/01/01 01:48:13;;;;;;;92.57;44.45;;;;;;;-0.13;78.61;94812.97;5025966;28;20025;-41
2023/01/01 01:50:40;;;;;;;100.05;44.63;;;;;;;-0.08;78.32;94812.34;5020327;28;20646;-46
2023/01/01 01:53:17;;;;;;;91.95;44.47;;;;;;;-0.03;78.05;94804.41;5023573;28;20018;-43
2023/01/01 01:55:46;;;;;;;103.63;46.65;;;;;;;-0.05;78.08;94798.66;5029557;28;20112;-43
2023/01/01 01:58:12;;;;;;;;;;;;;;;-0.25;78.67;94805.66;5007825;28;20033;-43
2023/01/01 02:00:38;;;;;;;65.13;32.97;;;;;;;-0.30;79.22;94793.41;5019826;28;19916;-42
2023/01/01 02:03:07;;;;;;;54.85;26.33;;;;;;;-0.23;79.54;94795.09;5023943;28;20052;-40
2023/01/01 02:05:34;;;;;;;51.35;27.83;;;;;;;-0.52;79.61;94794.69;5019861;28;20034;-41
2023/01/01 02:08:00;;;;;;;54.92;25.77;;;;;;;-0.37;80.00;94799.09;5016626;28;20057;-41
2023/01/01 02:10:27;;;;;;;42.15;23.23;;;;;;;-0.27;79.22;94795.25;5025117;28;20067;-41
2023/01/01 02:12:52;;;;;;;28.50;16.42;;;;;;;-0.26;79.40;94793.31;5022739;28;20026;-41
2023/01/01 02:15:18;;;;;;;29.05;15.82;;;;;;;-0.25;79.81;94801.00;5023013;28;20034;-41
2023/01/01 02:17:54;;;;;;;38.38;19.55;;;;;;;-0.33;79.65;94807.91;5024268;28;20025;-42
2023/01/01 02:20:54;;;;;;;47.08;24.23;;;;;;;-0.52;80.01;94803.56;5022396;28;20021;-42
2023/01/01 02:23:39;;;;;;;60.53;31.67;;;;;;;-0.37;79.90;94799.09;5022072;28;20674;-45
2023/01/01 02:26:16;;;;;;;62.05;29.50;;;;;;;-0.42;80.32;94807.84;5022161;28;20688;-44
2023/01/01 02:28:54;;;;;;;59.88;30.48;;;;;;;-0.42;80.60;94797.00;5022361;28;20036;-43
2023/01/01 02:31:25;;;;;;;49.47;26.23;;;;;;;-0.42;80.66;94807.09;5021798;28;20138;-44
2023/01/01 02:33:53;;;;;;;48.50;24.77;;;;;;;-0.52;80.35;94808.25;5018002;28;20044;-46
2023/01/01 02:36:20;;;;;;;51.77;27.07;;;;;;;-0.42;81.24;94812.50;5028778;28;20125;-45
2023/01/01 02:38:47;;;;;;;50.17;25.80;;;;;;;-0.25;80.77;94805.66;5026850;28;20021;-46
2023/01/01 02:41:39;;;;;;;52.15;26.23;;;;;;;0.05;80.69;94804.09;5041942;28;20026;-45
2023/01/01 02:44:05;;;;;;;51.28;26.65;;;;;;;-0.06;79.22;94808.00;5021926;28;20037;-44
2023/01/01 02:46:32;;;;;;;49.22;22.52;;;;;;;0.16;78.95;94804.44;5024708;28;20040;-47
2023/01/01 02:48:57;;;;;;;46.25;23.52;;;;;;;0.24;79.13;94811.13;5027594;28;20757;-44
2023/01/01 02:51:50;;;;;;;63.65;28.80;;;;;;;0.03;78.44;94809.97;5025445;28;20111;-44
2023/01/01 02:54:15;;;;;;;76.13;32.83;;;;;;;-0.06;79.27;94816.13;5022377;28;20072;-44
2023/01/01 02:56:46;;;;;;;58.58;28.08;;;;;;;-0.26;79.85;94796.00;5024287;28;20041;-44
2023/01/01 03:02:35;;;;;;;79.68;27.80;;;;;;;-0.15;80.72;94799.81;5017756;28;20064;-44
2023/01/01 03:05:27;;;;;;;74.63;26.80;;;;;;;0.09;80.14;94800.03;5024242;28;20045;-45
2023/01/01 03:08:01;;;;;;;85.93;27.10;;;;;;;-0.03;79.97;94806.34;4995870;28;20041;-43
2023/01/01 03:10:39;;;;;;;91.18;27.35;;;;;;;0.05;79.78;94804.09;5023656;28;20065;-42
2023/01/01 03:13:31;;;;;;;69.10;25.52;;;;;;;0.14;79.25;94807.59;5025094;28;20039;-41
2023/01/01 03:16:01;;;;;;;44.08;21.58;;;;;;;0.11;77.99;94794.19;5016548;28;20044;-41
2023/01/01 03:18:30;;;;;;;55.53;23.58;;;;;;;-0.01;77.80;94802.00;5026397;28;20027;-42
2023/01/01 03:20:57;;;;;;;38.88;19.27;;;;;;;-0.10;78.26;94806.63;5021297;28;20034;-41
2023/01/01 03:23:27;;;;;;;39.92;21.77;;;;;;;-0.23;78.26;94806.72;5022639;28;20049;-42
2023/01/01 03:25:56;;;;;;;40.50;21.02;;;;;;;-0.47;79.73;94794.84;5027116;28;20036;-41
2023/01/01 03:28:24;;;;;;;46.83;22.67;;;;;;;-0.47;80.38;94804.94;5022665;28;20029;-43
2023/01/01 03:30:51;;;;;;;56.03;22.33;;;;;;;-0.54;81.30;94816.81;5019151;28;20044;-42
2023/01/01 03:33:33;;;;;;;42.10;20.05;;;;;;;-0.46;81.08;94804.50;5025395;28;20535;-42
2023/01/01 03:36:34;;;;;;;38.42;19.38;;;;;;;-0.45;81.25;94802.53;5024877;28;20037;-42
2023/01/01 03:39:04;;;;;;;37.55;19.60;;;;;;;-0.49;81.61;94808.09;5019749;28;20497;-42
2023/01/01 03:42:14;;;;;;;69.28;15.98;;;;;;;-0.46;81.91;94807.22;5023703;28;20083;-42
2023/01/01 03:44:52;;;;;;;51.10;17.77;;;;;;;-0.39;81.88;94806.94;5026114;28;20037;-42
2023/01/01 03:47:18;;;;;;;53.80;17.48;;;;;;;-0.32;81.44;94801.25;5013099;28;20121;-42
2023/01/01 03:49:43;;;;;;;62.97;18.30;;;;;;;-0.41;81.72;94782.22;5022020;28;20156;-43
2023/01/01 03:52:50;;;;;;;61.72;17.00;;;;;;;-0.33;82.51;94807.13;5018159;28;20050;-45
2023/01/01 03:55:30;;;;;;;139.93;40.60;;;;;;;-0.22;82.89;94805.50;5018984;28;20635;-43
2023/01/01 03:58:04;;;;;;;151.75;39.38;;;;;;;-0.19;82.52;94807.34;5034392;28;20037;-43
2023/01/01 04:00:33;;;;;;;125.38;46.30;;;;;;;-0.10;82.30;94801.94;5022686;28;20034;-41
2023/01/01 04:03:27;;;;;;;68.45;28.80;;;;;;;-0.14;81.45;94814.91;5022016;28;20033;-43
2023/01/01 04:05:53;;;;;;;81.18;30.30;;;;;;;-0.16;80.90;94809.16;5018299;28;20729;-41
2023/01/01 04:08:18;;;;;;;91.13;29.63;;;;;;;-0.20;80.81;94808.56;5012792;28;20022;-42
2023/01/01 04:10:47;;;;;;;103.50;33.90;;;;;;;-0.17;81.29;94813.06;5022722;28;20224;-44
2023/01/01 04:13:12;;;;;;;73.78;30.00;;;;;;;-0.12;81.32;94809.03;5021934;28;20501;-42
2023/01/01 04:15:38;;;;;;;64.50;19.05;;;;;;;-0.29;81.86;94815.88;5027519;28;20040;-44
2023/01/01 04:18:03;;;;;;;88.25;25.90;;;;;;;-0.21;81.60;94808.97;5019238;28;20029;-43
2023/01/01 04:20:29;;;;;;;88.05;29.60;;;;;;;-0.20;81.24;94805.84;5024926;28;20026;-42
2023/01/01 04:22:56;;;;;;;81.03;33.58;;;;;;;-0.20;80.86;94805.84;5019552;28;20036;-43
2023/01/01 04:25:21;;;;;;;94.95;36.70;;;;;;;-0.31;81.63;94807.44;5020807;28;20036;-42
2023/01/01 04:27:47;;;;;;;65.10;23.88;;;;;;;-0.27;81.49;94813.47;5018788;28;20025;-44
2023/01/01 04:30:13;;;;;;;61.42;20.45;;;;;;;-0.24;81.36;94815.31;5020523;28;20466;-44
2023/01/01 04:32:39;;;;;;;46.75;16.92;;;;;;;-0.23;80.94;94808.69;5014011;28;20061;-42
2023/01/01 04:35:06;;;;;;;44.92;19.50;;;;;;;-0.32;81.02;94808.63;5016223;28;20861;-42
2023/01/01 04:37:31;;;;;;;36.85;18.75;;;;;;;-0.32;81.22;94814.06;5020243;28;20025;-43
2023/01/01 04:39:56;;;;;;;28.83;16.55;;;;;;;-0.47;80.91;94827.41;5024372;28;20060;-43
2023/01/01 04:42:22;;;;;;;31.88;17.73;;;;;;;-0.52;80.50;94825.25;5016543;28;20045;-43
2023/01/01 04:44:47;;;;;;;24.75;14.32;;;;;;;-0.49;80.69;94816.25;5019497;28;20029;-43
2023/01/01 04:47:13;;;;;;;28.63;14.52;;;;;;;-0.73;80.74;94787.31;5027696;28;20021;-45
2023/01/01 04:49:38;;;;;;;27.73;13.85;;;;;;;-0.53;80.71;94817.56;5021241;28;20544;-43
2023/01/01 04:52:04;;;;;;;26.20;12.48;;;;;;;-0.39;80.59;94817.06;5016656;28;20912;-42
2023/01/01 04:54:29;;;;;;;72.93;14.77;;;;;;;-0.48;80.43;94820.47;5025192;28;20101;-45
2023/01/01 04:56:55;;;;;;;31.50;13.70;;;;;;;-0.43;81.22;94827.25;5020874;28;20573;-43
2023/01/01 04:59:20;;;;;;;39.92;14.38;;;;;;;-0.29;80.56;94824.03;5024339;28;20029;-43
2023/01/01 05:01:46;;;;;;;55.53;16.65;;;;;;;-0.63;80.82;94797.03;5017700;28;20021;-43
2023/01/01 05:04:15;;;;;;;30.88;16.58;;;;;;;-0.40;80.89;94821.72;5022047;28;20095;-42
2023/01/01 05:06:41;;;;;;;62.53;18.63;;;;;;;-0.45;80.94;94829.66;5026447;28;20390;-46
2023/01/01 05:09:08;;;;;;;42.83;16.77;;;;;;;-0.35;81.29;94814.97;5019031;28;20029;-42
2023/01/01 05:11:33;;;;;;;51.00;17.30;;;;;;;-0.23;80.63;94825.72;5019434;28;20833;-42
2023/01/01 05:14:01;;;;;;;40.22;17.67;;;;;;;-0.36;80.48;94838.63;5022111;28;20021;-42
2023/01/01 05:16:28;;;;;;;78.43;18.58;;;;;;;-0.44;81.17;94831.19;5023853;28;20044;-42
2023/01/01 05:18:54;;;;;;;65.72;23.55;;;;;;;-0.34;81.38;94825.38;5022629;28;20599;-42
2023/01/01 05:21:22;;;;;;;64.68;18.27;;;;;;;-0.31;81.28;94829.16;5023452;28;20030;-42
2023/01/01 05:23:48;;;;;;;55.08;17.42;;;;;;;-0.27;81.05;94822.38;5019590;28;20064;-42
2023/01/01 05:26:18;;;;;;;78.20;19.35;;;;;;;-0.51;81.56;94824.06;5024854;28;20033;-44
2023/01/01 05:28:45;;;;;;;56.55;22.13;;;;;;;-0.71;83.31;94834.50;5019937;28;20821;-43
2023/01/01 05:31:22;;;;;;;78.38;24.00;;;;;;;-0.60;83.29;94813.16;5021715;28;20082;-43
2023/01/01 05:33:48;;;;;;;55.97;18.73;;;;;;;-0.46;82.94;94828.16;5013029;28;20033;-43
2023/01/01 05:36:19;;;;;;;68.53;25.40;;;;;;;-0.44;81.52;94825.75;5023741;28;20112;-44
2023/01/01 05:38:44;;;;;;;39.15;20.17;;;;;;;-0.77;81.63;94812.63;5015538;28;20029;-42
2023/01/01 05:41:12;;;;;;;30.95;15.98;;;;;;;-0.86;81.98;94817.22;5019918;28;20521;-42
2023/01/01 05:43:37;;;;;;;41.15;23.63;;;;;;;-0.80;81.81;94834.44;5022182;28;20025;-45
2023/01/01 05:46:05;;;;;;;30.80;16.92;;;;;;;-0.82;81.86;94837.59;5022797;28;20509;-42
2023/01/01 05:48:31;;;;;;;21.23;11.32;;;;;;;-0.79;81.61;94834.00;5019124;28;20813;-43
2023/01/01 05:51:04;;;;;;;25.95;12.93;;;;;;;-0.81;81.41;94830.97;5019047;28;20052;-45
2023/01/01 05:53:30;;;;;;;25.95;13.13;;;;;;;-0.90;82.28;94822.78;5022858;28;20099;-42
2023/01/01 05:55:56;;;;;;;34.67;17.55;;;;;;;-0.88;83.11;94819.63;5019643;28;20473;-42
2023/01/01 05:58:22;;;;;;;51.25;20.58;;;;;;;-0.85;82.78;94821.47;5024464;28;20037;-42
2023/01/01 06:00:47;;;;;;;47.92;20.75;;;;;;;-0.84;82.61;94804.75;5020769;28;20037;-43
2023/01/01 06:03:13;;;;;;;47.38;22.88;;;;;;;-0.75;81.79;94817.59;5022904;28;20057;-45
2023/01/01 06:05:38;;;;;;;47.45;23.52;;;;;;;-0.86;81.39;94822.63;5022732;28;20025;-42
2023/01/01 06:08:04;;;;;;;46.20;18.33;;;;;;;-0.90;80.70;94806.50;5019989;28;20033;-42
2023/01/01 06:10:29;;;;;;;63.08;24.50;;;;;;;-1.08;80.56;94792.81;5019660;28;20029;-43
2023/01/01 06:12:58;;;;;;;59.30;22.60;;;;;;;-1.07;81.01;94782.75;5028478;28;20029;-41
2023/01/01 06:15:26;;;;;;;42.35;16.52;;;;;;;-0.84;81.53;94833.78;5024414;28;20025;-43
2023/01/01 06:17:52;;;;;;;39.42;16.15;;;;;;;-0.70;81.21;94832.53;5024653;28;20116;-42
2023/01/01 06:20:18;;;;;;;59.33;20.13;;;;;;;-0.66;81.67;94833.94;5027087;28;20504;-44
2023/01/01 06:22:43;;;;;;;68.03;26.25;;;;;;;-0.57;81.21;94839.41;5024573;28;20024;-43
2023/01/01 06:25:09;;;;;;;55.92;20.92;;;;;;;-0.61;80.92;94836.06;5027651;28;20025;-43
2023/01/01 06:27:35;;;;;;;38.03;17.35;;;;;;;-0.52;80.86;94836.09;5028228;28;20514;-43
2023/01/01 06:30:02;;;;;;;35.72;17.88;;;;;;;-0.66;80.98;94839.34;5024453;28;20039;-41
2023/01/01 06:32:28;;;;;;;31.73;14.63;;;;;;;-0.76;81.60;94843.94;5027189;28;20025;-42
2023/01/01 06:34:53;;;;;;;127.93;50.13;;;;;;;-0.90;82.21;94846.41;5026927;28;20483;-41
2023/01/01 06:37:19;;;;;;;55.85;25.33;;;;;;;-0.78;82.32;94848.31;5021947;28;20641;-41
2023/01/01 06:39:44;;;;;;;22.40;13.60;;;;;;;-0.64;81.65;94847.81;5025170;28;20129;-42
2023/01/01 06:42:10;;;;;;;69.78;13.95;;;;;;;-0.65;81.28;94848.25;5025614;28;20516;-42
2023/01/01 06:44:35;;;;;;;96.95;40.58;;;;;;;-0.53;81.57;94856.31;5025621;28;20025;-42
2023/01/01 06:47:00;;;;;;;84.93;36.50;;;;;;;-0.56;81.25;94851.03;5024716;28;20515;-41
2023/01/01 06:49:26;;;;;;;83.90;31.80;;;;;;;-0.33;82.16;94853.25;5024266;28;20025;-41
2023/01/01 06:51:52;;;;;;;39.03;18.20;;;;;;;-0.07;81.31;94849.16;5027050;28;20513;-41
2023/01/01 06:54:17;;;;;;;37.03;14.27;;;;;;;-0.01;79.41;94853.56;5025591;28;20051;-41
2023/01/01 06:56:43;;;;;;;36.05;15.55;;;;;;;0.09;79.21;94854.34;5024846;28;20025;-41
2023/01/01 06:59:08;;;;;;;36.75;14.93;;;;;;;0.14;78.98;94858.44;5025822;28;20049;-42
2023/01/01 07:01:35;;;;;;;33.55;15.35;;;;;;;0.17;78.73;94865.69;5026840;28;20026;-42
2023/01/01 07:04:04;;;;;;;74.97;29.73;;;;;;;0.48;78.69;94866.38;5020892;28;20095;-44
2023/01/01 07:06:31;;;;;;;65.45;25.85;;;;;;;0.72;78.04;94867.34;5023510;28;20409;-42
2023/01/01 07:08:57;;;;;;;60.55;28.20;;;;;;;0.87;77.42;94860.13;5018867;28;20029;-42
2023/01/01 07:11:22;;;;;;;37.30;18.23;;;;;;;1.01;76.91;94854.09;5025384;28;20386;-42
2023/01/01 07:13:48;;;;;;;40.67;19.42;;;;;;;1.21;75.78;94862.53;5024026;28;20484;-42
2023/01/01 07:16:13;;;;;;;33.35;17.45;;;;;;;1.56;75.05;94864.94;5022030;28;20113;-41
2023/01/01 07:18:39;;;;;;;50.78;18.25;;;;;;;1.87;74.29;94866.22;5023232;28;20493;-42
2023/01/01 07:21:06;;;;;;;76.28;16.85;;;;;;;2.08;73.98;94864.53;5022634;28;20402;-43
2023/01/01 07:23:33;;;;;;;45.08;16.60;;;;;;;2.24;73.56;94866.88;5029108;28;20401;-43
2023/01/01 07:25:59;;;;;;;61.35;15.52;;;;;;;2.43;73.22;94875.69;5025728;28;20037;-42
2023/01/01 07:28:25;;;;;;;40.97;14.35;;;;;;;2.87;72.52;94876.69;5020330;28;20042;-42
2023/01/01 07:30:52;;;;;;;24.90;14.10;;;;;;;3.24;71.98;94871.72;5024007;28;20706;-42
2023/01/01 07:33:21;;;;;;;28.92;14.10;;;;;;;3.28;70.73;94873.06;5024244;28;20091;-43
2023/01/01 07:35:47;;;;;;;34.33;17.17;;;;;;;3.51;69.08;94874.97;5023696;28;20689;-42
2023/01/01 07:46:34;;;;;;;38.77;20.90;;;;;;;4.36;66.57;94871.22;5075303;27;1352621;-42
2023/01/01 07:48:59;;;;;;;45.60;22.85;;;;;;;4.92;66.22;94877.47;5123110;28;20473;-42
2023/01/01 07:51:26;;;;;;;43.90;22.38;;;;;;;5.39;65.03;94885.31;5122633;28;20031;-43
2023/01/01 07:53:51;;;;;;;41.42;21.73;;;;;;;5.80;63.56;94877.78;5123714;28;20025;-43
2023/01/01 07:56:17;;;;;;;64.45;34.45;;;;;;;6.39;61.52;94878.09;5120102;28;20019;-44
2023/01/01 07:58:43;;;;;;;64.80;36.40;;;;;;;6.57;61.11;94872.25;5102781;28;20027;-43
2023/01/01 08:01:10;;;;;;;66.75;36.65;;;;;;;7.31;59.54;94878.41;5104229;28;20050;-42
2023/01/01 08:03:35;;;;;;;59.33;34.17;;;;;;;8.06;57.40;94885.88;5120267;27;20130;-44
2023/01/01 08:06:11;;;;;;;55.15;33.75;;;;;;;8.91;54.77;94883.44;5122340;27;20502;-42
2023/01/01 08:08:37;;;;;;;53.15;33.67;;;;;;;9.65;52.51;94878.72;5122437;28;20033;-45
2023/01/01 08:11:03;;;;;;;59.78;35.25;;;;;;;10.30;50.58;94878.88;5123329;28;20031;-42
2023/01/01 08:13:28;;;;;;;67.35;40.72;;;;;;;10.82;49.92;94877.94;5121892;28;20030;-43
2023/01/01 08:15:54;;;;;;;47.10;30.52;;;;;;;11.86;47.54;94876.09;5121127;28;20058;-43
2023/01/01 08:18:20;;;;;;;36.85;25.33;;;;;;;12.78;45.35;94884.81;5122602;28;20514;-43
2023/01/01 08:20:45;;;;;;;36.10;25.08;;;;;;;13.55;43.74;94875.16;5121586;28;20019;-43
2023/01/01 08:23:10;;;;;;;37.10;24.45;;;;;;;13.01;45.22;94883.19;5122373;28;20686;-46
2023/01/01 08:25:36;;;;;;;35.25;22.33;;;;;;;14.46;42.30;94867.94;5118033;28;20032;-45
2023/01/01 08:28:01;;;;;;;32.20;21.33;;;;;;;15.26;40.95;94871.81;5101277;28;20027;-45
2023/01/01 08:30:27;;;;;;;34.85;23.83;;;;;;;16.05;38.97;94869.88;5117990;28;20460;-43
2023/01/01 08:32:52;;;;;;;25.00;18.23;;;;;;;16.27;39.22;94877.59;5117249;28;20403;-45
2023/01/01 08:35:18;;;;;;;21.15;15.15;;;;;;;16.91;37.88;94871.84;5116067;28;20728;-42
2023/01/01 08:37:43;;;;;;;22.98;16.08;;;;;;;17.04;37.86;94870.91;5117725;28;20031;-43
2023/01/01 08:40:11;;;;;;;28.88;20.13;;;;;;;16.86;37.44;94869.22;5120484;28;20020;-45
2023/01/01 08:42:36;;;;;;;132.48;65.65;;;;;;;16.70;37.03;94862.88;5121050;28;20031;-43
2023/01/01 08:45:02;;;;;;;38.30;25.83;;;;;;;16.92;37.55;94878.88;5117058;28;20047;-42
2023/01/01 08:47:27;;;;;;;46.83;30.10;;;;;;;16.74;37.39;94876.47;5123439;28;20610;-43
2023/01/01 08:49:53;;;;;;;27.52;19.42;;;;;;;16.41;38.79;94869.84;5122542;28;20015;-43
2023/01/01 08:52:19;;;;;;;43.25;24.75;;;;;;;16.60;38.96;94871.03;5114294;28;20067;-45
2023/01/01 08:54:44;;;;;;;39.78;26.42;;;;;;;16.51;39.71;94860.41;5117144;28;20023;-43
2023/01/01 08:57:10;;;;;;;54.88;35.08;;;;;;;16.32;39.81;94873.16;5110087;28;20027;-43
2023/01/01 08:59:36;;;;;;;40.03;26.00;;;;;;;16.99;38.72;94855.09;5108734;28;20034;-43
2023/01/01 09:02:01;;;;;;;33.67;24.02;;;;;;;17.53;37.90;94845.41;5108025;28;20134;-44
2023/01/01 09:04:27;;;;;;;31.45;23.55;;;;;;;17.77;37.59;94855.97;5107167;28;20027;-43
2023/01/01 09:06:52;;;;;;;29.55;21.92;;;;;;;17.57;37.90;94851.34;5108425;28;20514;-43
2023/01/01 09:09:18;;;;;;;30.13;21.98;;;;;;;17.90;38.42;94845.31;5107695;28;20032;-44
2023/01/01 09:11:51;;;;;;;36.05;24.25;;;;;;;18.92;36.45;94822.06;5106423;28;20035;-47
2023/01/01 09:14:16;;;;;;;35.63;25.92;;;;;;;19.62;35.18;94838.50;5090225;28;20027;-44
2023/01/01 09:16:42;;;;;;;38.35;27.50;;;;;;;20.12;34.78;94834.19;5107809;28;20618;-43
2023/01/01 09:19:07;;;;;;;35.83;25.55;;;;;;;20.70;33.65;94823.38;5105090;28;20586;-44
2023/01/01 09:21:33;;;;;;;35.28;26.30;;;;;;;20.69;33.02;94822.63;5107533;28;20038;-47
2023/01/01 09:23:58;;;;;;;46.88;28.98;;;;;;;19.64;34.65;94819.03;5102855;28;20020;-42
2023/01/01 09:26:23;;;;;;;41.45;28.33;;;;;;;19.79;34.51;94818.88;5101967;28;20028;-44
2023/01/01 09:28:49;;;;;;;37.72;24.98;;;;;;;20.40;33.87;94819.66;5099288;28;20027;-48
2023/01/01 09:31:15;;;;;;;37.55;26.17;;;;;;;20.86;33.68;94816.94;5104216;28;20080;-43
2023/01/01 09:33:40;;;;;;;56.92;35.28;;;;;;;21.23;33.09;94814.16;5107547;28;20047;-43
2023/01/01 09:36:13;;;;;;;58.65;38.40;;;;;;;21.30;32.02;94816.84;5103283;28;20073;-43
2023/01/01 09:38:38;;;;;;;63.90;42.45;;;;;;;21.11;32.42;94814.69;5103944;28;20036;-44
2023/01/01 09:41:16;;;;;;;45.10;33.03;;;;;;;20.92;33.66;94808.97;5100344;28;20049;-43
2023/01/01 09:44:07;;;;;;;27.58;20.98;;;;;;;20.44;33.79;94799.59;5102293;28;20035;-43
2023/01/01 09:46:35;;;;;;;22.90;16.90;;;;;;;20.55;34.16;94801.13;5106480;28;20180;-42
2023/01/01 09:49:06;;;;;;;24.08;18.52;;;;;;;21.34;32.30;94802.34;5104874;28;20056;-43
2023/01/01 09:51:34;;;;;;;18.90;14.77;;;;;;;21.36;31.37;94800.44;5085382;28;20524;-46
2023/01/01 09:54:06;;;;;;;15.50;12.18;;;;;;;21.09;31.67;94799.78;5103539;28;20046;-43
2023/01/01 09:56:32;;;;;;;16.67;13.32;;;;;;;20.76;32.69;94795.78;5101176;28;20050;-43
2023/01/01 09:58:58;;;;;;;19.40;12.60;;;;;;;20.93;32.65;94798.50;5079782;28;20498;-44
2023/01/01 10:02:00;;;;;;;26.75;15.98;;;;;;;20.79;32.25;94806.56;5101533;28;20542;-43
2023/01/01 10:04:44;;;;;;;14.88;11.75;;;;;;;20.37;33.55;94792.78;5102401;28;20019;-43
2023/01/01 10:07:13;;;;;;;16.23;11.02;;;;;;;20.10;33.05;94805.97;5104465;28;20058;-42
2023/01/01 10:09:44;;;;;;;21.25;11.48;;;;;;;20.08;33.16;94803.00;5101341;28;20030;-44
2023/01/01 10:12:20;;;;;;;14.50;12.27;;;;;;;20.24;33.71;94803.59;5102758;28;20031;-43
2023/01/01 10:14:51;;;;;;;14.55;11.25;;;;;;;21.00;32.73;94772.38;5083256;28;20219;-43
2023/01/01 10:17:22;;;;;;;14.88;10.85;;;;;;;21.20;32.43;94802.03;5101259;28;20031;-42
2023/01/01 10:19:57;;;;;;;13.43;11.00;;;;;;;21.65;31.08;94804.06;5080456;28;20027;-43
2023/01/01 10:22:26;;;;;;;15.23;10.85;;;;;;;21.71;31.63;94793.25;5102442;28;20046;-43
2023/01/01 10:24:58;;;;;;;;;;;;;;;21.52;32.30;94795.28;5085710;28;20572;-43
2023/01/01 10:27:34;;;;;;;13.52;10.85;;;;;;;21.87;31.51;94783.22;5100478;28;19966;-47
2023/01/01 10:30:02;;;;;;;13.75;10.70;;;;;;;22.23;30.37;94785.13;5105341;28;20119;-44
2023/01/01 10:32:33;;;;;;;15.55;12.10;;;;;;;22.68;29.77;94783.41;5102841;28;20032;-43
2023/01/01 10:35:00;;;;;;;13.88;11.25;;;;;;;22.60;30.58;94783.59;5104353;28;20024;-43
2023/01/01 10:37:30;;;;;;;16.85;11.85;;;;;;;23.00;29.72;94788.47;5082183;28;20031;-43
2023/01/01 10:39:56;;;;;;;14.48;11.52;;;;;;;23.27;29.71;94777.69;5080293;28;20054;-45
2023/01/01 10:42:21;;;;;;;17.00;13.07;;;;;;;23.49;28.59;94778.47;5084515;28;20110;-43
2023/01/01 10:44:47;;;;;;;13.52;10.48;;;;;;;23.56;29.16;94769.09;5092101;28;20784;-43
2023/01/01 10:47:25;;;;;;;17.38;12.38;;;;;;;23.67;29.17;94768.41;5080921;28;20024;-42
2023/01/01 10:49:54;;;;;;;15.75;10.88;;;;;;;23.88;29.38;94762.78;5094982;28;20705;-43
2023/01/01 10:52:24;;;;;;;12.95;10.70;;;;;;;24.17;27.55;94761.81;5092863;28;20032;-43
2023/01/01 10:54:49;;;;;;;12.95;10.00;;;;;;;23.88;27.35;94756.38;5092685;28;20352;-42
2023/01/01 10:57:36;;;;;;;18.02;11.73;;;;;;;23.77;28.06;94754.97;5076525;28;20052;-45
2023/01/01 11:00:21;;;;;;;14.75;11.90;;;;;;;23.68;28.49;94752.97;5094543;28;20085;-45
2023/01/01 11:02:47;;;;;;;12.00;9.20;;;;;;;23.28;28.67;94755.88;5096167;28;20076;-45
2023/01/01 11:05:20;;;;;;;14.55;9.75;;;;;;;23.41;28.74;94758.22;5077509;28;20102;-42
2023/01/01 11:07:46;;;;;;;12.93;9.80;;;;;;;23.42;28.59;94748.41;5093349;28;20039;-44
2023/01/01 11:10:28;;;;;;;14.65;10.27;;;;;;;23.05;28.67;94736.72;5074969;28;20047;-43
2023/01/01 11:12:53;;;;;;;17.23;11.70;;;;;;;22.57;29.32;94742.53;5095293;28;20027;-42
2023/01/01 11:15:32;;;;;;;19.02;12.35;;;;;;;22.60;30.65;94740.63;5096841;27;20024;-42
2023/01/01 11:18:13;;;;;;;17.23;13.25;;;;;;;22.37;31.10;94743.91;5086770;27;20127;-42
2023/01/01 11:20:39;;;;;;;30.20;17.50;;;;;;;22.47;30.25;94743.91;5109413;27;20042;-41
2023/01/01 11:23:27;;;;;;;24.30;16.05;;;;;;;22.54;30.88;94737.38;5089445;27;20716;-41
2023/01/01 11:25:57;;;;;;;23.88;16.75;;;;;;;22.24;31.49;94735.94;5101852;27;20035;-40
2023/01/01 11:28:23;;;;;;;23.92;16.30;;;;;;;22.31;30.87;94726.59;5100296;27;20043;-42
2023/01/01 11:31:10;;;;;;;24.27;16.08;;;;;;;22.49;30.70;94730.72;5101288;27;20015;-41
2023/01/01 11:33:43;;;;;;;22.35;15.43;;;;;;;21.85;30.89;94728.94;5097623;27;20414;-41
2023/01/01 11:36:08;;;;;;;20.00;14.25;;;;;;;21.44;32.08;94730.06;5092241;28;20016;-41
2023/01/01 11:38:34;;;;;;;21.70;15.30;;;;;;;21.61;31.95;94727.84;5099447;28;20438;-42